El Vendrell, Spain
Current Conditions -  °F | °C
As of 10:00 PM on Friday 28 Nov 2014 (Local Time) from LERS Reporting Station
Light Rain Light Rain  
Wind Chill: 18°   Ceiling: Unl
Heat Index: 18°   Visibility: 6mi
Dew Point: 15°   Wind: 12mph
Humidity: 83%   Direction: 70°ENE
Pressure: 29.44"   Gusts: NA
Location:  41.22°N, 1.53°E
Report Text: LERS 282100Z 07010KT 040V100 9000 -RA FEW035 SCT050 18/15 Q0997
Loading
Personal Weather Stations






























Interactive Weather Map New forecast layout! Learn more

10-Day Weather Forecast

Advertisements
Track Severe Weather on mobile